Aviation Digital Data Service (ADDS)

Output produced by METARs form (1813 UTC 19 August 2019)
found at http://www.aviationweather.gov/metar/data/
 
METAR text: MGSJ 191800Z 14008KT 9999 FEW018 SCT080 31/26 Q1011 A2985
Conditions at: MGSJ (SAN JOSE (CIV/M , GT) observed 1800 UTC 19 August 2019
Temperature: 31.0°C (88°F)
Dewpoint: 26.0°C (79°F) [RH = 75%]
Pressure (altimeter): 29.85 inches Hg (1011.0 mb)
Winds: from the SE (140 degrees) at 9 MPH (8 knots; 4.1 m/s)
Visibility: 6 or more miles (10+ km)
Ceiling: at least 12,000 feet AGL
Clouds: few clouds at 1800 feet AGL
scattered clouds at 8000 feet AGL
Weather: no significant weather observed at this time

METAR text: MGSJ 191700Z 11006KT 9999 SCT018 30/26 Q1011 A2985
Conditions at: MGSJ (SAN JOSE (CIV/M , GT) observed 1700 UTC 19 August 2019
Temperature: 30.0°C (86°F)
Dewpoint: 26.0°C (79°F) [RH = 79%]
Pressure (altimeter): 29.85 inches Hg (1011.0 mb)
Winds: from the ESE (110 degrees) at 7 MPH (6 knots; 3.1 m/s)
Visibility: 6 or more miles (10+ km)
Ceiling: at least 12,000 feet AGL
Clouds: scattered clouds at 1800 feet AGL
Weather: no significant weather observed at this time

METAR text: MGSJ 191600Z 11006KT CAVOK 28/26 Q1012 A2988 SCT070
Conditions at: MGSJ (SAN JOSE (CIV/M , GT) observed 1600 UTC 19 August 2019
Temperature: 28.0°C (82°F)
Dewpoint: 26.0°C (79°F) [RH = 89%]
Pressure (altimeter): 29.88 inches Hg (1012.0 mb)
Winds: from the ESE (110 degrees) at 7 MPH (6 knots; 3.1 m/s)
Visibility: 6 or more miles (10+ km)
Ceiling: at least 12,000 feet AGL
Clouds: scattered clouds at 7000 feet AGL
Weather: no significant weather observed at this time

METAR text: MGSJ 191500Z 14010KT 8000 RA SCT016 FEW028CB OVC070 27/24 Q1012 A2988 CB SSE
Conditions at: MGSJ (SAN JOSE (CIV/M , GT) observed 1500 UTC 19 August 2019
Temperature: 27.0°C (81°F)
Dewpoint: 24.0°C (75°F) [RH = 84%]
Pressure (altimeter): 29.88 inches Hg (1012.0 mb)
Winds: from the SE (140 degrees) at 12 MPH (10 knots; 5.1 m/s)
Visibility: 5 miles ( 8 km)
Ceiling: 7000 feet AGL
Clouds: scattered clouds at 1600 feet AGL
few clouds at 2800 feet AGL
overcast cloud deck at 7000 feet AGL
Weather: RA SS  (moderate rain, sandstorm)

METAR text: MGSJ 191400Z 00000KT 9999 TS FEW016 FEW028CB OVC070 25/24 Q1012 A2988 CB/TS/PCPN S
Conditions at: MGSJ (SAN JOSE (CIV/M , GT) observed 1400 UTC 19 August 2019
Temperature: 25.0°C (77°F)
Dewpoint: 24.0°C (75°F) [RH = 94%]
Pressure (altimeter): 29.88 inches Hg (1012.0 mb)
Winds: calm
Visibility: 6 or more miles (10+ km)
Ceiling: 7000 feet AGL
Clouds: few clouds at 1600 feet AGL
few clouds at 2800 feet AGL
overcast cloud deck at 7000 feet AGL
Weather: TS TS  (thunderstorm, thunderstorm)

METAR text: MGSJ 191300Z 13010KT 2000 +TSRA SCT012 FEW028CB OVC070 24/24 Q1012 A2988 CB/TS/LTNG E APCH CLSD
Conditions at: MGSJ (SAN JOSE (CIV/M , GT) observed 1300 UTC 19 August 2019
Temperature: 24.0°C (75°F)
Dewpoint: 24.0°C (75°F) [RH = 100%]
Pressure (altimeter): 29.88 inches Hg (1012.0 mb)
Winds: from the SE (130 degrees) at 12 MPH (10 knots; 5.1 m/s)
Visibility: 1.24 miles (2.00 km)
Ceiling: 7000 feet AGL
Clouds: scattered clouds at 1200 feet AGL
few clouds at 2800 feet AGL
overcast cloud deck at 7000 feet AGL
Weather: +TSRA TS  (heavy rain associated with thunderstorm(s), thunderstorm)

METAR text: MGSJ 191200Z 06006KT 7000 VCSH FEW016 FEW028CB BKN060 25/23 Q1010 A2983 CB/PCPN SSE/S
Conditions at: MGSJ (SAN JOSE (CIV/M , GT) observed 1200 UTC 19 August 2019
Temperature: 25.0°C (77°F)
Dewpoint: 23.0°C (73°F) [RH = 89%]
Pressure (altimeter): 29.82 inches Hg (1010.0 mb)
Winds: from the ENE (60 degrees) at 7 MPH (6 knots; 3.1 m/s)
Visibility: 4 miles ( 7 km)
Ceiling: 6000 feet AGL
Clouds: few clouds at 1600 feet AGL
few clouds at 2800 feet AGL
broken clouds at 6000 feet AGL
Weather: VCSH SS  (showers in vicinity, sandstorm)

METAR text: MGSJ 190000Z 09010KT 5000 VCSH SCT016 OVC070 27/25 Q1010 A2983 PCPN N/NNE/NE
Conditions at: MGSJ (SAN JOSE (CIV/M , GT) observed 0000 UTC 19 August 2019
Temperature: 27.0°C (81°F)
Dewpoint: 25.0°C (77°F) [RH = 89%]
Pressure (altimeter): 29.82 inches Hg (1010.0 mb)
Winds: from the E (90 degrees) at 12 MPH (10 knots; 5.1 m/s)
Visibility: 3 miles ( 5 km)
Ceiling: 7000 feet AGL
Clouds: scattered clouds at 1600 feet AGL
overcast cloud deck at 7000 feet AGL
Weather: VCSH  (showers in vicinity)

METAR text: MGSJ 182300Z 00000KT 9999 SCT016 OVC070 2725 Q1010 A2983
Conditions at: MGSJ (SAN JOSE (CIV/M , GT) observed 2300 UTC 18 August 2019
Temperature: missing
Dewpoint: missing
Pressure (altimeter): 29.82 inches Hg (1010.0 mb)
Winds: calm
Visibility: 6 or more miles (10+ km)
Ceiling: 7000 feet AGL
Clouds: scattered clouds at 1600 feet AGL
overcast cloud deck at 7000 feet AGL
Weather: no significant weather observed at this time

METAR text: MGSJ 182200Z 00000KT 9999 FEW016 OVC070 28/25 Q1010 A2983
Conditions at: MGSJ (SAN JOSE (CIV/M , GT) observed 2200 UTC 18 August 2019
Temperature: 28.0°C (82°F)
Dewpoint: 25.0°C (77°F) [RH = 84%]
Pressure (altimeter): 29.82 inches Hg (1010.0 mb)
Winds: calm
Visibility: 6 or more miles (10+ km)
Ceiling: 7000 feet AGL
Clouds: few clouds at 1600 feet AGL
overcast cloud deck at 7000 feet AGL
Weather: no significant weather observed at this time

METAR text: MGSJ 182100Z 09004KT 7000 RA SCT014 OVC070 26/25 Q1011 A2985
Conditions at: MGSJ (SAN JOSE (CIV/M , GT) observed 2100 UTC 18 August 2019
Temperature: 26.0°C (79°F)
Dewpoint: 25.0°C (77°F) [RH = 94%]
Pressure (altimeter): 29.85 inches Hg (1011.0 mb)
Winds: from the E (90 degrees) at 5 MPH (4 knots; 2.1 m/s)
Visibility: 4 miles ( 7 km)
Ceiling: 7000 feet AGL
Clouds: scattered clouds at 1400 feet AGL
overcast cloud deck at 7000 feet AGL
Weather: RA  (moderate rain)

METAR text: MGSJ 182000Z 09004KT 8000 -RA SCT014 OVC070 26/25 Q1012 A2988
Conditions at: MGSJ (SAN JOSE (CIV/M , GT) observed 2000 UTC 18 August 2019
Temperature: 26.0°C (79°F)
Dewpoint: 25.0°C (77°F) [RH = 94%]
Pressure (altimeter): 29.88 inches Hg (1012.0 mb)
Winds: from the E (90 degrees) at 5 MPH (4 knots; 2.1 m/s)
Visibility: 5 miles ( 8 km)
Ceiling: 7000 feet AGL
Clouds: scattered clouds at 1400 feet AGL
overcast cloud deck at 7000 feet AGL
Weather: -RA  (light rain)

METAR text: MGSJ 181900Z 09004KT 7000 RA SCT014 OVC070 26/24 Q1012 A2988
Conditions at: MGSJ (SAN JOSE (CIV/M , GT) observed 1900 UTC 18 August 2019
Temperature: 26.0°C (79°F)
Dewpoint: 24.0°C (75°F) [RH = 89%]
Pressure (altimeter): 29.88 inches Hg (1012.0 mb)
Winds: from the E (90 degrees) at 5 MPH (4 knots; 2.1 m/s)
Visibility: 4 miles ( 7 km)
Ceiling: 7000 feet AGL
Clouds: scattered clouds at 1400 feet AGL
overcast cloud deck at 7000 feet AGL
Weather: RA  (moderate rain)

METAR text: MGSJ 181800Z 09010KT 8000 VCSH SCT016 FEW030CB OVC080 29/25 Q1012 A2988 CB/PCPN/SE/SSE PCPN N/NNE/NW
Conditions at: MGSJ (SAN JOSE (CIV/M , GT) observed 1800 UTC 18 August 2019
Temperature: 29.0°C (84°F)
Dewpoint: 25.0°C (77°F) [RH = 79%]
Pressure (altimeter): 29.88 inches Hg (1012.0 mb)
Winds: from the E (90 degrees) at 12 MPH (10 knots; 5.1 m/s)
Visibility: 5 miles ( 8 km)
Ceiling: 8000 feet AGL
Clouds: scattered clouds at 1600 feet AGL
few clouds at 3000 feet AGL
overcast cloud deck at 8000 feet AGL
Weather: VCSH SS  (showers in vicinity, sandstorm)

METAR text: MGSJ 181700Z 09010KT 9999 SCT016 FEW028CB BKN070 28/25 Q1013 A2991 CB SSE PCPN NNE/NE
Conditions at: MGSJ (SAN JOSE (CIV/M , GT) observed 1700 UTC 18 August 2019
Temperature: 28.0°C (82°F)
Dewpoint: 25.0°C (77°F) [RH = 84%]
Pressure (altimeter): 29.91 inches Hg (1013.0 mb)
Winds: from the E (90 degrees) at 12 MPH (10 knots; 5.1 m/s)
Visibility: 6 or more miles (10+ km)
Ceiling: 7000 feet AGL
Clouds: scattered clouds at 1600 feet AGL
few clouds at 2800 feet AGL
broken clouds at 7000 feet AGL
Weather: SS  (sandstorm)

METAR text: MGSJ 181600Z 36004KT 8000 SCT016 OVC080 26/25 Q1013 A2991 BR
Conditions at: MGSJ (SAN JOSE (CIV/M , GT) observed 1600 UTC 18 August 2019
Temperature: 26.0°C (79°F)
Dewpoint: 25.0°C (77°F) [RH = 94%]
Pressure (altimeter): 29.91 inches Hg (1013.0 mb)
Winds: from the N (360 degrees) at 5 MPH (4 knots; 2.1 m/s)
Visibility: 5 miles ( 8 km)
Ceiling: 8000 feet AGL
Clouds: scattered clouds at 1600 feet AGL
overcast cloud deck at 8000 feet AGL
Weather: BR  (mist)

METAR text: MGSJ 181500Z 00000KT 7000 -RA SCT014 OVC080 24/24 Q1013 A2991 RETS
Conditions at: MGSJ (SAN JOSE (CIV/M , GT) observed 1500 UTC 18 August 2019
Temperature: 24.0°C (75°F)
Dewpoint: 24.0°C (75°F) [RH = 100%]
Pressure (altimeter): 29.91 inches Hg (1013.0 mb)
Winds: calm
Visibility: 4 miles ( 7 km)
Ceiling: 8000 feet AGL
Clouds: scattered clouds at 1400 feet AGL
overcast cloud deck at 8000 feet AGL
Weather: -RA  (light rain)

METAR text: MGSJ 181400Z 16006KT 8000 -RA BKN010 OVC070 25/25 Q1012 A2988
Conditions at: MGSJ (SAN JOSE (CIV/M , GT) observed 1400 UTC 18 August 2019
Temperature: 25.0°C (77°F)
Dewpoint: 25.0°C (77°F) [RH = 100%]
Pressure (altimeter): 29.88 inches Hg (1012.0 mb)
Winds: from the SSE (160 degrees) at 7 MPH (6 knots; 3.1 m/s)
Visibility: 5 miles ( 8 km)
Ceiling: 1000 feet AGL
Clouds: broken clouds at 1000 feet AGL
overcast cloud deck at 7000 feet AGL
Weather: -RA  (light rain)

METAR text: MGSJ 181300Z 24004KT 8000 -RA SCT012 OVC070 24/23 Q1011 A2985
Conditions at: MGSJ (SAN JOSE (CIV/M , GT) observed 1300 UTC 18 August 2019
Temperature: 24.0°C (75°F)
Dewpoint: 23.0°C (73°F) [RH = 94%]
Pressure (altimeter): 29.85 inches Hg (1011.0 mb)
Winds: from the WSW (240 degrees) at 5 MPH (4 knots; 2.1 m/s)
Visibility: 5 miles ( 8 km)
Ceiling: 7000 feet AGL
Clouds: scattered clouds at 1200 feet AGL
overcast cloud deck at 7000 feet AGL
Weather: -RA  (light rain)

METAR text: MGSJ 181200Z 00000KT 8000 VCSH SCT016 SCT060 23/23 Q1010 A2983 PCPN SMC S
Conditions at: MGSJ (SAN JOSE (CIV/M , GT) observed 1200 UTC 18 August 2019
Temperature: 23.0°C (73°F)
Dewpoint: 23.0°C (73°F) [RH = 100%]
Pressure (altimeter): 29.82 inches Hg (1010.0 mb)
Winds: calm
Visibility: 5 miles ( 8 km)
Ceiling: at least 12,000 feet AGL
Clouds: scattered clouds at 1600 feet AGL
scattered clouds at 6000 feet AGL
Weather: VCSH  (showers in vicinity)

Forecast for: MGSJ (SAN JOSE (CIV/M , GT)
Text: MGSJ 191700Z 1918/2018 18008KT 9999 SCT018 TX30/1920Z TN23/2012Z
Forecast period: 1800 UTC 19 August 2019 to 0100 UTC 20 August 2019
Forecast type: FROM: standard forecast or significant change
Winds: from the S (180 degrees) at 9 MPH (8 knots; 4.1 m/s)
Visibility: 6 or more miles 10+ km)
Ceiling: at least 12,000 feet AGL
Clouds: scattered clouds at 1800 feet AGL
Weather: no significant weather forecast for this period
Text: TEMPO 1919/2009 7000 TSRA SCT020TCU SCT025CB
Forecast period: 1900 UTC 19 August 2019 to 0900 UTC 20 August 2019
Forecast type: TEMPORARY: The following changes expected for less than half the time period
Visibility: 4 miles (7 km)
Ceiling: at least 12,000 feet AGL
Clouds: scattered clouds at 2000 feet AGL
scattered clouds at 2500 feet AGL
Weather: TSRA  (rain associated with thunderstorm(s))
Text: BECMG 2001/2003 00000KT SCT016
Forecast period: 0100 to 1500 UTC 20 August 2019
Forecast type: BECOMING: Conditions expected to become as follows by 0300 UTC 20 August 2019
Winds: calm
Visibility: 6 or more miles 10+ km)
Ceiling: at least 12,000 feet AGL
Clouds: scattered clouds at 1600 feet AGL
Weather: no significant weather forecast for this period
Text: BECMG 2015/2017 18008KT FEW018
Forecast period: 1500 to 1800 UTC 20 August 2019
Forecast type: BECOMING: Conditions expected to become as follows by 1700 UTC 20 August 2019
Winds: from the S (180 degrees) at 9 MPH (8 knots; 4.1 m/s)
Visibility: 6 or more miles 10+ km)
Ceiling: at least 12,000 feet AGL
Clouds: few clouds at 1800 feet AGL
Weather: no significant weather forecast for this period